00:38
Airports
History
Links
Donate
Help keep this website running!
PayPal
Bitcoin
Information on this page is community maintained and may be outdated or inaccurate and is intended for reference only or PC simulator navigating.
Always use approved charts for navigating.
VDBG
BATTAMBANG
BATTAMBANG (VDBG)
Krong Battambang, Battambang, Cambodia
(C)
Lat/Lng:13° 5' 44.03" N / 103° 13' 27.87" E
13.095564 / 103.224409
Elevation:59'ft 18mMSL
ID / ICAO:VDBG
Runways:1
Longest:(07-25) 1,577.2m 5,175ft Asphalt
Controlled:Yes
Distance To
Airport ID:
Airport Radio Frequencies
Tower: 122.4
Nearby VORs <50NM
Nearby NDBs
Nearby WeatherUpdated 07-25-17 00:30 GMT
Nearby weather at VDSR, Siem Reap located 45.2 nautical miles from VDBG
Altimeter: 29.62
Visibility: 5.6 statute miles
Wind: 2 knots (210°)
Temp: 25°c 77°f
Humidity: 100.0%

METAR: VDSR 250030Z 21002KT 9000 SCT015 BKN040 25/25 Q1003

(Powered by phpweather)
Runway 07 / 25
Dimensions:1577.2 x 34.1m 5175' x 112'ft
Surface:Asphalt
Runway 07 [A]Runway 25 [B]
Heading:068°TH 248°TH
Lat:
Lng:
13° 5' 34.83"N
103° 13' 3.47"E
13° 5' 53.23"N
103° 13' 52.27"E
User Notes and Comments
Google Map
Nearby Airports
(C) Siem Reap 45.2 NM
VDSR (WX) ENE 61°
(C) Trat RTAF 75.4 NM
VTBV SW 219°
(C) Prachin Buri Watthana Nakhon 76.8 NM
VTBW NW 307°
(C) Trat Bangkok Air 83.3 NM
VTBO SW 227°
(C) Chantaburi RTN 86.9 NM
VTBC WSW 248°
(C) KAMPONG CHHNANG 107.3 NM
VDKH ESE 122°
(C) Nang Rong 110.2 NM
VTW2 NNW 344°
VFR Chart
Flight Planning at SkyVector.com